Bannock, Ohio
Current Conditions -  °F | °C
As of 8:53 AM on Monday 24 Nov 2014 (Local Time) from KHLG Reporting Station
Few Clouds Few Clouds  
Wind Chill: 63°   Ceiling: Unl
Heat Index: 63°   Visibility: 10mi
Dew Point: 50°   Wind: 24mph
Humidity: 63%   Direction: 200°SSW
Pressure: 29.42"   Gusts: 39mph
Location:  40.1°N, 80.98°W
Report Text: KHLG 241353Z 20021G34KT 10SM FEW042 17/10 A2942 RMK AO2 PK WND 19034/1351 SLP960 T01720100
Loading
Personal Weather Stations






























Interactive Weather Map New forecast layout! Learn more

10-Day Weather Forecast

Advertisements
Track Severe Weather on mobile